Time;durP1;ratioP1;P1;durP2;ratioP2;P2;SDS_P1;SDS_P2;PMS_P1;PMS_P2;Temp;Humidity;BMP_temperature;BMP_pressure;BME280_temperature;BME280_humidity;BME280_pressure;Samples;Min_cycle;Max_cycle;Signal;HPM_P1;HPM_P2
2022/05/26 00:02:18;;;;;;;2.42;1.95;;;16.20;65.30;;;;;;5070733;28;20206;-69
2022/05/26 00:04:45;;;;;;;4.63;2.40;;;16.20;65.70;;;;;;5071860;28;20191;-69
2022/05/26 00:07:12;;;;;;;5.27;2.70;;;16.10;67.40;;;;;;5062504;28;20826;-69
2022/05/26 00:09:39;;;;;;;5.38;2.47;;;16.10;68.90;;;;;;5070261;28;20206;-69
2022/05/26 00:12:06;;;;;;;2.87;2.47;;;16.10;70.20;;;;;;5072067;28;20200;-69
2022/05/26 00:14:33;;;;;;;4.07;2.90;;;16.00;72.70;;;;;;5055996;28;20198;-71
2022/05/26 00:17:01;;;;;;;4.83;3.13;;;15.90;1.00;;;;;;5061970;28;20202;-75
2022/05/26 00:19:29;;;;;;;3.20;2.80;;;15.90;99.90;;;;;;5066545;28;20211;-76
2022/05/26 00:21:56;;;;;;;6.60;3.47;;;15.90;1.00;;;;;;5061752;28;20224;-75
2022/05/26 00:24:23;;;;;;;7.53;3.13;;;15.90;1.00;;;;;;5065607;28;20229;-75
2022/05/26 00:26:50;;;;;;;6.43;3.50;;;15.90;1.00;;;;;;5066698;28;20197;-75
2022/05/26 00:29:17;;;;;;;3.83;3.53;;;15.90;1.00;;;;;;5064149;28;20209;-75
2022/05/26 00:31:44;;;;;;;3.80;2.90;;;15.90;1.00;;;;;;5069485;28;20198;-75
2022/05/26 00:34:11;;;;;;;4.90;3.13;;;15.80;99.90;;;;;;5070037;28;20209;-76
2022/05/26 00:36:41;;;;;;;6.13;3.33;;;15.80;1.00;;;;;;5071968;28;20346;-75
2022/05/26 00:39:11;;;;;;;5.10;2.87;;;15.80;1.00;;;;;;5062880;28;20211;-75
2022/05/26 00:41:45;;;;;;;4.43;3.13;;;15.80;1.00;;;;;;5076296;28;20220;-76
2022/05/26 00:44:13;;;;;;;6.23;3.63;;;15.80;99.90;;;;;;5069355;28;20666;-75
2022/05/26 00:46:45;;;;;;;4.00;3.27;;;15.80;99.90;;;;;;5071681;28;20209;-76
2022/05/26 00:49:19;;;;;;;6.60;3.30;;;15.80;99.90;;;;;;5069359;28;20203;-75
2022/05/26 00:51:47;;;;;;;7.33;3.40;;;15.80;1.00;;;;;;5070926;28;20198;-75
2022/05/26 00:54:19;;;;;;;6.90;3.60;;;15.80;1.00;;;;;;5069051;28;20253;-76
2022/05/26 00:56:50;;;;;;;4.87;3.70;;;15.60;1.00;;;;;;5067372;28;20664;-76
2022/05/26 00:59:21;;;;;;;6.67;4.30;;;15.60;1.00;;;;;;5080426;28;20568;-75
2022/05/26 01:01:48;;;;;;;5.40;3.87;;;15.40;1.00;;;;;;5073724;28;20688;-75
2022/05/26 01:04:18;;;;;;;6.73;3.90;;;15.40;1.00;;;;;;5067975;28;20203;-75
2022/05/26 01:06:50;;;;;;;4.90;4.43;;;15.40;1.00;;;;;;5063374;28;20198;-75
2022/05/26 01:09:17;;;;;;;6.40;4.10;;;15.40;99.90;;;;;;5070730;28;20625;-76
2022/05/26 01:11:45;;;;;;;6.97;4.97;;;15.40;99.90;;;;;;5066681;28;20198;-76
2022/05/26 01:14:15;;;;;;;4.30;3.90;;;15.30;99.90;;;;;;5057227;28;20542;-76
2022/05/26 01:16:49;;;;;;;10.03;4.23;;;15.30;99.90;;;;;;5079011;28;20199;-75
2022/05/26 01:19:56;;;;;;;4.23;3.90;;;15.30;1.00;;;;;;5075154;28;20198;-76
2022/05/26 01:22:42;;;;;;;5.37;4.40;;;15.20;1.00;;;;;;5078961;28;20554;-75
2022/05/26 01:25:54;;;;;;;4.83;4.33;;;15.10;1.00;;;;;;5060474;28;20215;-75
2022/05/26 01:28:36;;;;;;;4.43;4.03;;;15.10;1.00;;;;;;5050767;28;20213;-75
2022/05/26 01:31:25;;;;;;;6.13;4.50;;;15.10;1.00;;;;;;5077146;28;20256;-76
2022/05/26 01:34:00;;;;;;;7.30;4.37;;;15.10;1.00;;;;;;5074596;28;20190;-75
2022/05/26 01:36:37;;;;;;;4.60;4.17;;;15.10;1.00;;;;;;5073343;28;20216;-75
2022/05/26 01:39:16;;;;;;;9.70;4.53;;;15.20;1.00;;;;;;5071791;28;20675;-75
2022/05/26 01:42:04;;;;;;;7.13;4.37;;;15.20;1.00;;;;;;5087354;28;20219;-76
2022/05/26 01:44:47;;;;;;;6.50;4.40;;;15.20;1.00;;;;;;5073498;28;20205;-75
2022/05/26 01:47:23;;;;;;;6.70;4.10;;;15.20;1.00;;;;;;5079656;28;20207;-75
2022/05/26 01:49:57;;;;;;;5.67;4.43;;;15.20;1.00;;;;;;5077247;28;20198;-75
2022/05/26 01:52:30;;;;;;;4.63;4.23;;;15.20;1.00;;;;;;5083094;28;20194;-75
2022/05/26 01:55:03;;;;;;;5.67;4.67;;;15.20;1.00;;;;;;5075855;28;20202;-75
2022/05/26 01:57:39;;;;;;;6.30;4.73;;;15.20;1.00;;;;;;5071006;28;20198;-76
2022/05/26 02:00:10;;;;;;;6.53;4.80;;;15.20;1.00;;;;;;5081512;28;20193;-76
2022/05/26 02:02:42;;;;;;;6.30;5.07;;;15.30;1.00;;;;;;5072748;28;20216;-76
2022/05/26 02:05:13;;;;;;;6.50;4.37;;;15.30;1.00;;;;;;5077628;28;20207;-75
2022/05/26 02:07:46;;;;;;;6.10;4.27;;;15.30;1.00;;;;;;5074234;28;20201;-76
2022/05/26 02:10:16;;;;;;;6.73;4.40;;;15.30;1.00;;;;;;5073211;28;20202;-75
2022/05/26 02:12:47;;;;;;;5.87;4.53;;;15.30;1.00;;;;;;5078663;28;20213;-75
2022/05/26 02:15:17;;;;;;;6.43;5.00;;;15.30;1.00;;;;;;5075219;28;20199;-75
2022/05/26 02:17:49;;;;;;;7.17;4.57;;;15.30;1.00;;;;;;5075931;28;20198;-75
2022/05/26 02:20:24;;;;;;;5.50;4.77;;;15.40;1.00;;;;;;5061958;28;20203;-75
2022/05/26 02:22:57;;;;;;;5.50;4.37;;;15.40;1.00;;;;;;5076253;28;20259;-75
2022/05/26 02:25:26;;;;;;;6.10;4.50;;;15.30;1.00;;;;;;5085457;28;20198;-75
2022/05/26 02:27:55;;;;;;;6.77;4.37;;;15.30;1.00;;;;;;5068906;28;20194;-75
2022/05/26 02:30:22;;;;;;;6.53;4.63;;;15.30;1.00;;;;;;5072473;28;20201;-75
2022/05/26 02:32:53;;;;;;;6.23;4.43;;;15.40;1.00;;;;;;5077264;28;20651;-75
2022/05/26 02:35:25;;;;;;;5.17;4.50;;;15.40;1.00;;;;;;5070600;28;20392;-75
2022/05/26 02:37:56;;;;;;;7.63;5.20;;;15.30;1.00;;;;;;5084535;28;20205;-75
2022/05/26 02:40:23;;;;;;;7.20;5.20;;;15.30;1.00;;;;;;5076079;28;20202;-75
2022/05/26 02:42:53;;;;;;;6.80;5.23;;;15.30;1.00;;;;;;5069341;28;20222;-76
2022/05/26 02:45:26;;;;;;;6.03;5.10;;;15.30;1.00;;;;;;5075008;28;20532;-75
2022/05/26 02:48:02;;;;;;;6.13;5.03;;;15.30;1.00;;;;;;5071518;28;20554;-75
2022/05/26 02:50:48;;;;;;;7.03;4.77;;;15.30;1.00;;;;;;5069926;28;20202;-76
2022/05/26 02:53:20;;;;;;;5.27;4.77;;;15.30;1.00;;;;;;5077111;28;20597;-75
2022/05/26 02:56:00;;;;;;;6.97;5.50;;;15.30;1.00;;;;;;5071682;28;20203;-75
2022/05/26 02:58:37;;;;;;;5.63;4.87;;;15.30;1.00;;;;;;5075900;28;20640;-75
2022/05/26 03:01:09;;;;;;;5.30;4.80;;;15.30;1.00;;;;;;5072032;28;20209;-75
2022/05/26 03:03:42;;;;;;;9.27;5.27;;;15.30;1.00;;;;;;5071861;28;20214;-75
2022/05/26 03:06:14;;;;;;;8.00;4.77;;;15.30;1.00;;;;;;5075243;28;20217;-75
2022/05/26 03:08:43;;;;;;;5.27;4.70;;;15.40;1.00;;;;;;5078626;28;20562;-75
2022/05/26 03:11:12;;;;;;;8.47;5.00;;;15.30;1.00;;;;;;5067497;28;20576;-76
2022/05/26 03:13:39;;;;;;;4.90;4.40;;;15.30;1.00;;;;;;5078774;28;20198;-75
2022/05/26 03:16:08;;;;;;;8.20;4.93;;;15.30;1.00;;;;;;5079575;28;20206;-76
2022/05/26 03:18:37;;;;;;;9.23;5.53;;;15.30;1.00;;;;;;5075140;28;20574;-75
2022/05/26 03:21:06;;;;;;;5.40;4.90;;;15.30;1.00;;;;;;5068485;28;20201;-76
2022/05/26 03:23:33;;;;;;;5.67;4.53;;;15.30;1.00;;;;;;5092185;28;20226;-75
2022/05/26 03:26:01;;;;;;;7.77;5.23;;;15.30;1.00;;;;;;5080757;28;20194;-75
2022/05/26 03:28:30;;;;;;;8.20;4.87;;;15.30;1.00;;;;;;5072598;28;20648;-75
2022/05/26 03:30:57;;;;;;;5.07;4.60;;;15.30;1.00;;;;;;5069778;28;20586;-75
2022/05/26 03:33:24;;;;;;;9.80;4.80;;;15.40;1.00;;;;;;5080214;28;20709;-72
2022/05/26 03:41:26;;;;;;;7.80;4.37;;;15.40;1.00;;;;;;5082824;28;20201;-72
2022/05/26 03:43:57;;;;;;;5.00;3.80;;;15.40;1.00;;;;;;5072197;28;20244;-72
2022/05/26 03:46:25;;;;;;;7.10;4.67;;;15.40;1.00;;;;;;5074415;28;20523;-72
2022/05/26 03:48:52;;;;;;;5.57;3.97;;;15.30;1.00;;;;;;5071229;28;20199;-72
2022/05/26 03:51:20;;;;;;;4.67;4.00;;;15.40;1.00;;;;;;5066008;28;20690;-72
2022/05/26 03:53:47;;;;;;;6.97;4.40;;;15.30;1.00;;;;;;5071476;28;20198;-72
2022/05/26 03:56:14;;;;;;;6.37;4.40;;;15.30;1.00;;;;;;5075220;28;20204;-72
2022/05/26 03:58:41;;;;;;;4.43;4.03;;;15.30;1.00;;;;;;5073158;28;20581;-72
2022/05/26 04:01:09;;;;;;;6.47;4.00;;;15.30;1.00;;;;;;5080258;28;20660;-72
2022/05/26 04:03:36;;;;;;;7.27;4.43;;;15.40;1.00;;;;;;5073620;28;20674;-72
2022/05/26 04:06:03;;;;;;;7.03;4.40;;;15.40;1.00;;;;;;5070516;28;20198;-73
2022/05/26 04:08:31;;;;;;;4.70;4.00;;;15.40;1.00;;;;;;5073707;28;20220;-72
2022/05/26 04:10:58;;;;;;;8.30;4.20;;;15.40;1.00;;;;;;5075531;28;20199;-72
2022/05/26 04:13:25;;;;;;;4.80;3.87;;;15.40;1.00;;;;;;5072836;28;20198;-72
2022/05/26 04:15:52;;;;;;;10.50;5.03;;;15.40;1.00;;;;;;5064834;28;20569;-72
2022/05/26 04:18:19;;;;;;;8.03;5.07;;;15.30;1.00;;;;;;5072893;28;20202;-72
2022/05/26 04:20:46;;;;;;;6.67;5.67;;;15.30;1.00;;;;;;5066662;28;20203;-72
2022/05/26 04:23:12;;;;;;;6.57;5.37;;;15.30;1.00;;;;;;5079709;28;20217;-72
2022/05/26 04:25:41;;;;;;;8.20;5.77;;;15.30;1.00;;;;;;5083223;28;20204;-72
2022/05/26 04:28:08;;;;;;;6.20;5.40;;;15.30;1.00;;;;;;5077075;28;20202;-72
2022/05/26 04:30:35;;;;;;;7.20;5.77;;;15.30;1.00;;;;;;5073705;28;20194;-72
2022/05/26 04:33:02;;;;;;;8.07;6.60;;;15.30;1.00;;;;;;5079092;28;20190;-72
2022/05/26 04:35:29;;;;;;;10.80;8.50;;;15.20;1.00;;;;;;5075214;28;20210;-72
2022/05/26 04:37:55;;;;;;;8.70;6.47;;;15.20;1.00;;;;;;5076949;28;20198;-72
2022/05/26 04:40:22;;;;;;;7.40;6.80;;;15.20;1.00;;;;;;5075072;28;20204;-72
2022/05/26 04:42:51;;;;;;;7.33;6.63;;;15.20;1.00;;;;;;5072448;28;20221;-72
2022/05/26 04:45:18;;;;;;;8.70;7.00;;;15.20;1.00;;;;;;5067423;28;20207;-72
2022/05/26 04:47:44;;;;;;;8.00;7.17;;;15.20;1.00;;;;;;5067165;28;20274;-72
2022/05/26 04:50:12;;;;;;;7.37;6.67;;;15.30;1.00;;;;;;5064867;28;20217;-72
2022/05/26 04:52:40;;;;;;;8.90;7.40;;;15.20;1.00;;;;;;5066519;28;20213;-72
2022/05/26 04:55:08;;;;;;;10.53;7.10;;;15.30;1.00;;;;;;5064306;28;20206;-72
2022/05/26 04:57:35;;;;;;;11.10;8.00;;;15.30;1.00;;;;;;5070108;28;20202;-72
2022/05/26 05:00:08;;;;;;;10.07;7.30;;;15.30;1.00;;;;;;5073583;28;20577;-72
2022/05/26 05:02:34;;;;;;;12.10;8.07;;;15.40;5.00;;;;;;5068112;28;20240;-72
2022/05/26 05:05:02;;;;;;;8.77;7.80;;;15.40;11.00;;;;;;5069567;28;20562;-72
2022/05/26 05:07:29;;;;;;;11.07;7.77;;;15.30;21.30;;;;;;5066603;28;20645;-72
2022/05/26 05:09:56;;;;;;;9.93;8.13;;;15.40;25.40;;;;;;5066626;28;20198;-72
2022/05/26 05:12:24;;;;;;;8.43;7.60;;;15.40;39.10;;;;;;5074482;28;20574;-72
2022/05/26 05:14:53;;;;;;;9.57;7.90;;;15.40;40.20;;;;;;5069433;28;20210;-72
2022/05/26 05:17:23;;;;;;;9.57;8.10;;;15.40;47.20;;;;;;5063940;28;20653;-73
2022/05/26 05:19:50;;;;;;;12.10;8.90;;;15.40;46.80;;;;;;5069881;28;20203;-73
2022/05/26 05:22:22;;;;;;;9.90;8.37;;;15.50;31.20;;;;;;5073368;28;20199;-72
2022/05/26 05:24:52;;;;;;;9.90;8.50;;;15.50;53.10;;;;;;5068442;28;20590;-72
2022/05/26 05:27:24;;;;;;;9.47;8.27;;;15.50;65.80;;;;;;5065513;28;20561;-72
2022/05/26 05:29:53;;;;;;;11.87;8.73;;;15.50;64.50;;;;;;5064616;28;20469;-72
2022/05/26 05:32:25;;;;;;;9.70;8.27;;;15.50;68.00;;;;;;5068116;28;20211;-72
2022/05/26 05:34:56;;;;;;;10.50;8.30;;;15.40;79.40;;;;;;5067096;28;20209;-72
2022/05/26 05:37:22;;;;;;;9.50;8.40;;;15.50;92.40;;;;;;5068494;28;20683;-73
2022/05/26 05:39:50;;;;;;;14.47;9.40;;;15.50;99.90;;;;;;5061310;28;20198;-73
2022/05/26 05:42:17;;;;;;;13.87;10.47;;;15.50;99.90;;;;;;5071240;28;20225;-73
2022/05/26 05:44:45;;;;;;;12.77;11.10;;;15.20;99.90;;;;;;5073117;28;20232;-73
2022/05/26 05:47:11;;;;;;;15.77;13.00;;;15.00;99.90;;;;;;5075796;28;20225;-74
2022/05/26 05:49:40;;;;;;;16.83;12.70;;;14.90;99.90;;;;;;5067677;28;20199;-74
2022/05/26 05:52:10;;;;;;;15.30;11.37;;;14.90;99.90;;;;;;5072889;28;20206;-74
2022/05/26 05:54:38;;;;;;;13.70;10.93;;;14.90;99.90;;;;;;5064944;28;20205;-74
2022/05/26 05:57:06;;;;;;;15.50;11.73;;;14.80;99.90;;;;;;5066722;28;20203;-74
2022/05/26 05:59:33;;;;;;;12.90;9.90;;;14.80;99.90;;;;;;5063673;28;20217;-74
2022/05/26 06:02:00;;;;;;;14.17;9.83;;;14.70;99.90;;;;;;5067404;28;20205;-74
2022/05/26 06:04:27;;;;;;;12.87;9.97;;;14.80;99.90;;;;;;5067199;28;20711;-74
2022/05/26 06:06:55;;;;;;;12.67;9.37;;;14.90;99.90;;;;;;5067585;28;20202;-74
2022/05/26 06:09:22;;;;;;;11.47;9.00;;;15.00;99.90;;;;;;5064536;28;20684;-73
2022/05/26 06:11:50;;;;;;;10.17;7.80;;;15.00;99.90;;;;;;5061993;28;20206;-74
2022/05/26 06:14:17;;;;;;;13.23;8.67;;;15.10;99.90;;;;;;5063710;28;20240;-74
2022/05/26 06:16:45;;;;;;;12.47;10.30;;;15.00;99.90;;;;;;5065436;28;20225;-74
2022/05/26 06:19:13;;;;;;;13.00;10.13;;;15.10;99.90;;;;;;5064370;28;20612;-74
2022/05/26 06:21:41;;;;;;;11.30;9.47;;;15.20;99.90;;;;;;5063257;28;20225;-74
2022/05/26 06:24:10;;;;;;;13.27;10.87;;;15.10;99.90;;;;;;5070340;28;20232;-74
2022/05/26 06:26:37;;;;;;;18.10;11.67;;;15.10;99.90;;;;;;5065494;28;20206;-74
2022/05/26 06:37:16;;;;;;;15.97;12.77;;;15.50;99.90;;;;;;5069681;28;20225;-73
2022/05/26 06:39:45;;;;;;;17.37;12.93;;;15.60;99.90;;;;;;5066590;28;20665;-74
2022/05/26 06:42:12;;;;;;;15.73;12.03;;;15.80;99.90;;;;;;5061000;28;20633;-74
2022/05/26 06:44:42;;;;;;;19.63;13.70;;;16.00;99.90;;;;;;5064060;28;20229;-74
2022/05/26 06:47:10;;;;;;;16.27;13.83;;;16.10;99.90;;;;;;5062502;28;20199;-73
2022/05/26 06:49:38;;;;;;;18.47;13.80;;;16.00;99.90;;;;;;5063085;28;20205;-73
2022/05/26 06:52:06;;;;;;;18.37;14.57;;;15.90;99.90;;;;;;5063760;28;20203;-76
2022/05/26 06:54:34;;;;;;;16.57;14.17;;;15.80;99.90;;;;;;5065595;28;20209;-73
2022/05/26 06:57:02;;;;;;;18.30;13.30;;;15.90;99.90;;;;;;5061351;28;20210;-73
2022/05/26 06:59:29;;;;;;;15.77;13.32;;;16.10;99.90;;;;;;5068714;28;20212;-73
2022/05/26 07:01:56;;;;;;;15.03;12.33;;;16.10;99.90;;;;;;5062713;28;20297;-73
2022/05/26 07:04:23;;;;;;;15.07;11.77;;;16.30;99.90;;;;;;5060712;28;20628;-74
2022/05/26 07:06:52;;;;;;;16.50;11.63;;;16.20;99.90;;;;;;5063440;28;20199;-74
2022/05/26 07:09:20;;;;;;;17.67;12.40;;;16.40;99.90;;;;;;5061223;28;20213;-73
2022/05/26 07:11:48;;;;;;;15.33;11.63;;;16.60;99.90;;;;;;5062630;28;20301;-73
2022/05/26 07:14:16;;;;;;;13.00;10.43;;;16.80;99.90;;;;;;5062303;28;20199;-73
2022/05/26 07:16:45;;;;;;;11.67;9.67;;;16.60;99.90;;;;;;5063839;28;20211;-73
2022/05/26 07:19:12;;;;;;;11.57;9.60;;;16.50;99.90;;;;;;5063830;28;20240;-74
2022/05/26 07:21:39;;;;;;;12.33;8.53;;;16.60;99.90;;;;;;5065113;28;20199;-73
2022/05/26 07:24:07;;;;;;;12.83;8.70;;;16.80;99.90;;;;;;5063708;28;20225;-73
2022/05/26 07:26:34;;;;;;;13.40;8.23;;;16.60;99.90;;;;;;5067472;28;20198;-73
2022/05/26 07:29:01;;;;;;;10.18;8.10;;;16.50;99.90;;;;;;5055290;28;20301;-73
2022/05/26 07:31:29;;;;;;;10.57;8.33;;;16.60;99.90;;;;;;5064806;28;20203;-73
2022/05/26 07:33:56;;;;;;;12.73;7.73;;;16.60;99.90;;;;;;5056679;28;20277;-73
2022/05/26 07:41:57;;;;;;;9.43;7.47;;;16.60;99.90;;;;;;5062756;28;20237;-73
2022/05/26 07:44:25;;;;;;;10.30;7.18;;;16.50;99.90;;;;;;5063162;28;20633;-73
2022/05/26 07:46:53;;;;;;;10.03;7.53;;;16.50;99.90;;;;;;5065832;28;20198;-73
2022/05/26 07:49:20;;;;;;;13.35;8.15;;;16.50;99.90;;;;;;5059941;28;20576;-73
2022/05/26 07:51:47;;;;;;;12.70;8.27;;;16.70;99.90;;;;;;5061787;28;20214;-73
2022/05/26 07:54:14;;;;;;;17.47;12.20;;;16.90;99.90;;;;;;5060958;28;20204;-73
2022/05/26 07:56:41;;;;;;;12.07;8.50;;;17.10;96.40;;;;;;5058677;28;20238;-73
2022/05/26 07:59:09;;;;;;;10.18;7.20;;;17.10;91.40;;;;;;5067316;28;20202;-73
2022/05/26 08:01:36;;;;;;;13.50;7.28;;;17.30;91.30;;;;;;5058199;28;20202;-74
2022/05/26 08:04:07;;;;;;;8.95;7.40;;;17.40;76.40;;;;;;5063442;28;20225;-74
2022/05/26 08:06:34;;;;;;;10.18;7.25;;;17.50;7.90;;;;;;5066110;28;20199;-73
2022/05/26 08:09:01;;;;;;;12.48;6.88;;;17.40;49.60;;;;;;5065951;28;20653;-73
2022/05/26 08:11:27;;;;;;;10.27;6.88;;;17.40;62.90;;;;;;5068419;28;20213;-73
2022/05/26 08:13:54;;;;;;;12.32;7.40;;;17.30;98.40;;;;;;5060154;28;20217;-73
2022/05/26 08:16:21;;;;;;;10.32;6.95;;;17.20;1.00;;;;;;5065927;28;20628;-73
2022/05/26 08:18:48;;;;;;;9.20;6.68;;;17.00;35.90;;;;;;5065834;28;20203;-73
2022/05/26 08:21:18;;;;;;;8.25;6.57;;;17.00;99.90;;;;;;5062345;28;20207;-73
2022/05/26 08:23:45;;;;;;;8.75;6.82;;;16.90;99.90;;;;;;5062284;28;20232;-73
2022/05/26 08:26:12;;;;;;;8.93;6.60;;;16.80;99.90;;;;;;5069216;28;20202;-74
2022/05/26 08:28:39;;;;;;;12.35;7.70;;;16.70;99.90;;;;;;5063427;28;20203;-73
2022/05/26 08:31:08;;;;;;;11.67;6.63;;;16.70;99.90;;;;;;5068017;28;20191;-74
2022/05/26 08:33:36;;;;;;;8.40;6.10;;;16.70;99.90;;;;;;5065896;28;20195;-73
2022/05/26 08:36:04;;;;;;;8.60;6.60;;;16.80;82.10;;;;;;5068804;28;20209;-73
2022/05/26 08:38:32;;;;;;;9.30;6.57;;;16.90;24.30;;;;;;5069599;28;20662;-73
2022/05/26 08:41:00;;;;;;;10.80;7.00;;;17.00;43.20;;;;;;5059414;28;20535;-72
2022/05/26 08:43:33;;;;;;;9.88;6.35;;;17.30;57.30;;;;;;5079030;28;20202;-72
2022/05/26 08:46:00;;;;;;;9.55;6.45;;;17.90;1.00;;;;;;5055733;28;21635;-73
2022/05/26 08:48:42;;;;;;;9.82;6.00;;;18.40;99.90;;;;;;5064225;28;20199;-74
2022/05/26 08:51:12;;;;;;;11.57;6.13;;;18.60;99.90;;;;;;5058683;28;20657;-73
2022/05/26 08:53:42;;;;;;;6.68;4.47;;;18.60;99.90;;;;;;5065989;28;20206;-73
2022/05/26 08:56:12;;;;;;;7.78;4.60;;;18.10;99.90;;;;;;5066864;28;20212;-73
2022/05/26 08:58:46;;;;;;;6.20;4.60;;;18.40;99.90;;;;;;5063228;28;20276;-73
2022/05/26 09:01:17;;;;;;;11.15;4.90;;;18.40;99.90;;;;;;5064004;28;20205;-73
2022/05/26 09:03:45;;;;;;;10.13;4.38;;;18.60;99.90;;;;;;5062950;28;20227;-73
2022/05/26 09:06:14;;;;;;;6.03;4.18;;;19.00;99.90;;;;;;5059426;28;20217;-73
2022/05/26 09:14:25;;;;;;;7.20;4.63;;;18.30;99.90;;;;;;5067674;28;20565;-73
2022/05/26 09:16:57;;;;;;;9.15;4.90;;;18.10;99.90;;;;;;5066729;28;20204;-73
2022/05/26 09:19:24;;;;;;;6.75;4.05;;;18.30;99.90;;;;;;5061703;28;20211;-73
2022/05/26 09:21:53;;;;;;;7.40;4.57;;;18.30;99.90;;;;;;5064568;28;20194;-73
2022/05/26 09:24:25;;;;;;;5.28;3.50;;;18.20;99.90;;;;;;5069160;28;20227;-73
2022/05/26 09:26:57;;;;;;;6.80;4.78;;;18.70;99.90;;;;;;5068915;28;20276;-73
2022/05/26 09:29:26;;;;;;;4.85;2.80;;;19.30;97.80;;;;;;5059378;28;20653;-73
2022/05/26 09:31:54;;;;;;;4.20;2.92;;;19.80;90.50;;;;;;5071519;28;20209;-73
2022/05/26 09:34:23;;;;;;;4.68;3.38;;;19.60;86.70;;;;;;5064601;28;20569;-73
2022/05/26 09:36:52;;;;;;;4.90;2.80;;;19.50;89.60;;;;;;5066698;28;20213;-73
2022/05/26 09:39:24;;;;;;;4.72;3.25;;;19.80;85.50;;;;;;5067202;28;20615;-73
2022/05/26 09:41:53;;;;;;;5.22;2.70;;;19.90;80.80;;;;;;5066597;28;20206;-73
2022/05/26 09:44:32;;;;;;;5.00;3.08;;;19.70;78.90;;;;;;5061728;28;20249;-73
2022/05/26 09:47:03;;;;;;;3.35;2.63;;;19.60;82.00;;;;;;5067099;28;20221;-73
2022/05/26 09:49:35;;;;;;;4.70;2.70;;;19.60;77.70;;;;;;5062977;28;20204;-73
2022/05/26 09:52:14;;;;;;;4.80;2.60;;;19.40;76.70;;;;;;5067813;28;20239;-73
2022/05/26 09:54:43;;;;;;;2.45;2.25;;;19.00;75.00;;;;;;5060688;28;20195;-73
2022/05/26 09:57:19;;;;;;;3.88;2.55;;;18.90;74.20;;;;;;5061733;28;20202;-73
2022/05/26 09:59:46;;;;;;;3.47;2.08;;;18.90;74.50;;;;;;5064338;28;20207;-73
2022/05/26 10:02:16;;;;;;;3.35;2.25;;;18.70;72.20;;;;;;5069057;28;20672;-73
2022/05/26 10:04:58;;;;;;;5.90;2.50;;;18.90;73.90;;;;;;5061740;28;20229;-73
2022/05/26 10:07:40;;;;;;;3.67;2.30;;;18.90;70.30;;;;;;5064320;28;20666;-73
2022/05/26 10:10:15;;;;;;;6.63;2.58;;;19.00;70.50;;;;;;5059747;28;20204;-73
2022/05/26 10:12:55;;;;;;;5.78;2.40;;;19.70;66.60;;;;;;5066165;28;20209;-70
2022/05/26 10:15:31;;;;;;;4.55;2.40;;;20.10;64.90;;;;;;5066601;28;20198;-70
2022/05/26 10:18:17;;;;;;;6.00;2.80;;;19.80;65.40;;;;;;5061866;28;20221;-70
2022/05/26 10:20:51;;;;;;;6.82;3.45;;;19.70;65.90;;;;;;5066575;28;20719;-70
2022/05/26 10:23:36;;;;;;;4.45;2.40;;;19.60;69.90;;;;;;5069221;28;20206;-71
2022/05/26 10:26:15;;;;;;;6.30;2.63;;;19.60;65.00;;;;;;5060443;28;20215;-70
2022/05/26 10:29:06;;;;;;;6.28;2.50;;;19.50;66.30;;;;;;5064187;28;20544;-70
2022/05/26 10:31:49;;;;;;;4.13;2.30;;;19.30;62.80;;;;;;5064107;28;20641;-70
2022/05/26 10:34:42;;;;;;;8.93;3.42;;;19.10;67.10;;;;;;5061039;28;20207;-70
2022/05/26 10:37:20;;;;;;;7.85;2.80;;;19.10;66.60;;;;;;5067951;28;20657;-70
2022/05/26 10:40:05;;;;;;;5.65;3.58;;;19.50;65.70;;;;;;5062723;28;20288;-70
2022/05/26 10:42:36;;;;;;;3.65;2.83;;;19.90;67.60;;;;;;5064649;28;20229;-70
2022/05/26 10:45:09;;;;;;;7.93;2.40;;;21.00;63.80;;;;;;5057383;28;20218;-70
2022/05/26 10:47:42;;;;;;;4.90;2.92;;;20.90;62.50;;;;;;5066061;28;20293;-70
2022/05/26 10:50:18;;;;;;;2.85;2.20;;;20.50;59.10;;;;;;5060222;28;20214;-70
2022/05/26 10:52:50;;;;;;;3.17;2.45;;;19.90;60.30;;;;;;5061627;28;20207;-70
2022/05/26 10:55:21;;;;;;;4.45;2.88;;;19.70;61.70;;;;;;5064723;28;20203;-70
2022/05/26 10:57:55;;;;;;;7.82;3.25;;;19.50;65.70;;;;;;5059974;28;20199;-70
2022/05/26 11:00:26;;;;;;;9.38;4.78;;;19.50;66.80;;;;;;5062990;28;20837;-70
2022/05/26 11:03:00;;;;;;;4.45;2.50;;;19.80;67.70;;;;;;5063680;28;20202;-70
2022/05/26 11:05:33;;;;;;;3.47;2.50;;;19.90;62.90;;;;;;5062500;28;20230;-70
2022/05/26 11:08:18;;;;;;;5.15;2.65;;;20.80;57.20;;;;;;5074241;28;20433;-70
2022/05/26 11:10:49;;;;;;;4.90;2.70;;;21.10;52.00;;;;;;5066851;28;20203;-70
2022/05/26 11:13:21;;;;;;;4.20;2.50;;;21.00;52.40;;;;;;5060670;28;20206;-70
2022/05/26 11:18:43;;;;;;;6.95;3.08;;;20.80;55.50;;;;;;5065095;28;20198;-70
2022/05/26 11:21:14;;;;;;;6.10;2.40;;;21.00;54.20;;;;;;5063180;28;20544;-70
2022/05/26 11:23:42;;;;;;;4.47;2.65;;;20.80;54.70;;;;;;5066575;28;20195;-70
2022/05/26 11:26:21;;;;;;;7.32;2.80;;;20.70;56.20;;;;;;5064111;28;20229;-70
2022/05/26 11:28:54;;;;;;;5.40;2.78;;;21.10;53.40;;;;;;5062332;28;20608;-70
2022/05/26 11:37:03;;;;;;;5.50;2.95;;;20.90;49.70;;;;;;5062566;28;20260;-71
2022/05/26 11:39:36;;;;;;;5.65;2.70;;;20.50;53.60;;;;;;5057050;28;20203;-70
2022/05/26 11:42:07;;;;;;;4.45;2.78;;;20.20;53.70;;;;;;5065507;28;20661;-70
2022/05/26 11:44:39;;;;;;;4.78;2.50;;;20.00;56.30;;;;;;5069592;28;20560;-70
2022/05/26 11:47:31;;;;;;;5.07;2.30;;;19.90;55.60;;;;;;5065529;28;20213;-70
2022/05/26 11:50:30;;;;;;;3.08;2.53;;;19.70;56.30;;;;;;5064106;28;20206;-70
2022/05/26 11:53:06;;;;;;;6.78;2.53;;;20.10;53.80;;;;;;5054868;28;20298;-70
2022/05/26 11:55:46;;;;;;;3.00;2.30;;;20.30;51.90;;;;;;5067378;28;20202;-70
2022/05/26 11:58:32;;;;;;;5.72;2.60;;;20.50;52.00;;;;;;5062334;28;20566;-70
2022/05/26 12:01:34;;;;;;;3.38;2.40;;;21.20;48.30;;;;;;5064550;28;20210;-70
2022/05/26 12:04:06;;;;;;;3.40;2.75;;;21.40;49.30;;;;;;5064493;28;20251;-70
2022/05/26 12:06:35;;;;;;;5.93;2.58;;;21.00;48.80;;;;;;5060165;28;20230;-70
2022/05/26 12:09:05;;;;;;;4.50;2.13;;;20.60;52.10;;;;;;5066672;28;20214;-70
2022/05/26 12:11:58;;;;;;;2.35;2.05;;;20.20;53.10;;;;;;5062276;28;20588;-70
2022/05/26 12:14:28;;;;;;;5.25;2.25;;;20.00;55.00;;;;;;5061621;28;20202;-70
2022/05/26 12:17:28;;;;;;;7.57;2.72;;;20.20;53.30;;;;;;5063264;28;20674;-70
2022/05/26 12:19:57;;;;;;;6.25;2.60;;;20.40;54.80;;;;;;5066395;28;20221;-70
2022/05/26 12:22:29;;;;;;;3.92;2.42;;;20.20;55.70;;;;;;5063232;28;20191;-70
2022/05/26 12:25:17;;;;;;;7.82;2.90;;;20.20;57.70;;;;;;5054414;28;20689;-70
2022/05/26 12:28:25;;;;;;;7.20;2.50;;;19.70;57.40;;;;;;5064635;28;20198;-70
2022/05/26 12:31:13;;;;;;;5.82;2.80;;;19.50;59.90;;;;;;5066323;28;20198;-71
2022/05/26 12:34:13;;;;;;;4.93;3.00;;;19.40;62.00;;;;;;5059801;28;20203;-70
2022/05/26 12:37:03;;;;;;;5.20;3.08;;;19.50;62.70;;;;;;5059773;28;20217;-70
2022/05/26 12:40:04;;;;;;;4.68;2.72;;;19.80;65.60;;;;;;5058841;28;20211;-70
2022/05/26 12:42:44;;;;;;;4.85;2.75;;;19.60;63.90;;;;;;5065438;28;20202;-70
2022/05/26 12:45:22;;;;;;;6.22;3.13;;;19.50;64.90;;;;;;5064346;28;20226;-70
2022/05/26 12:48:09;;;;;;;5.82;2.63;;;19.40;65.10;;;;;;5068247;28;20206;-70
2022/05/26 12:50:40;;;;;;;4.40;2.65;;;19.20;63.40;;;;;;5066948;28;20695;-70
2022/05/26 12:53:17;;;;;;;5.68;2.72;;;19.20;60.70;;;;;;5064962;28;20588;-70
2022/05/26 12:55:48;;;;;;;7.53;3.20;;;19.40;62.50;;;;;;5067189;28;20229;-70
2022/05/26 12:58:19;;;;;;;7.07;3.42;;;19.90;63.80;;;;;;5066641;28;20202;-70
2022/05/26 13:00:49;;;;;;;6.55;3.78;;;20.70;59.30;;;;;;5064568;28;20223;-70
2022/05/26 13:03:26;;;;;;;4.47;2.38;;;20.60;58.50;;;;;;5068664;28;20202;-71
2022/05/26 13:05:59;;;;;;;5.25;2.65;;;20.50;56.80;;;;;;5062576;28;20214;-70
2022/05/26 13:08:30;;;;;;;3.63;2.30;;;20.40;57.20;;;;;;5069282;28;20248;-70
2022/05/26 13:10:59;;;;;;;5.82;2.63;;;20.30;56.30;;;;;;5062120;28;20207;-70
2022/05/26 13:13:35;;;;;;;4.72;2.42;;;20.40;57.40;;;;;;5063752;28;20206;-70
2022/05/26 13:16:21;;;;;;;4.70;2.55;;;20.50;55.70;;;;;;5065339;28;20247;-70
2022/05/26 13:18:48;;;;;;;3.90;2.53;;;20.40;56.70;;;;;;5070009;28;20198;-70
2022/05/26 13:21:17;;;;;;;6.50;2.90;;;20.20;58.60;;;;;;5067170;28;20203;-70
2022/05/26 13:23:45;;;;;;;4.82;2.85;;;20.30;61.70;;;;;;5063953;28;20614;-70
2022/05/26 13:26:13;;;;;;;4.97;2.65;;;20.60;58.80;;;;;;5069131;28;20214;-70
2022/05/26 13:28:45;;;;;;;9.30;2.97;;;21.40;55.30;;;;;;5060699;28;20662;-70
2022/05/26 13:33:58;;;;;;;4.50;2.58;;;20.70;55.20;;;;;;5031693;28;20664;-73
2022/05/26 13:36:30;;;;;;;3.45;2.55;;;20.30;57.50;;;;;;5064201;28;20214;-72
2022/05/26 13:39:05;;;;;;;4.47;2.67;;;20.00;57.20;;;;;;5061380;28;20208;-72
2022/05/26 13:41:32;;;;;;;4.57;2.75;;;19.90;58.80;;;;;;5061096;28;20214;-73
2022/05/26 13:44:03;;;;;;;5.57;2.78;;;19.90;61.50;;;;;;5067330;28;20205;-73
2022/05/26 13:46:33;;;;;;;4.72;2.95;;;20.20;60.80;;;;;;5060736;28;20226;-73
2022/05/26 13:49:02;;;;;;;6.20;3.00;;;20.90;59.50;;;;;;5066019;28;20202;-73